sensor_id;sensor_type;location;lat;lon;timestamp;pressure;altitude;pressure_sealevel;temperature;humidity
18819;BME280;9537;45.594;9.294;2024-03-02T00:00:51;98723.22;;;10.68;100.00
18819;BME280;9537;45.594;9.294;2024-03-02T00:01:53;98738.03;;;10.69;100.00
18819;BME280;9537;45.594;9.294;2024-03-02T00:02:54;98730.28;;;10.67;100.00
18819;BME280;9537;45.594;9.294;2024-03-02T00:03:55;98731.94;;;10.68;100.00
18819;BME280;9537;45.594;9.294;2024-03-02T00:04:58;98734.78;;;10.67;100.00
18819;BME280;9537;45.594;9.294;2024-03-02T00:05:59;98733.56;;;10.69;100.00
18819;BME280;9537;45.594;9.294;2024-03-02T00:07:01;98730.13;;;10.69;100.00
18819;BME280;9537;45.594;9.294;2024-03-02T00:08:04;98742.28;;;10.70;100.00
18819;BME280;9537;45.594;9.294;2024-03-02T00:09:05;98736.22;;;10.69;100.00
18819;BME280;9537;45.594;9.294;2024-03-02T00:10:09;98740.50;;;10.70;100.00
18819;BME280;9537;45.594;9.294;2024-03-02T00:11:11;98743.75;;;10.72;100.00
18819;BME280;9537;45.594;9.294;2024-03-02T00:12:15;98742.75;;;10.73;100.00
18819;BME280;9537;45.594;9.294;2024-03-02T00:13:16;98742.75;;;10.73;100.00
18819;BME280;9537;45.594;9.294;2024-03-02T00:14:17;98743.34;;;10.75;100.00
18819;BME280;9537;45.594;9.294;2024-03-02T00:15:40;98740.69;;;10.75;100.00
18819;BME280;9537;45.594;9.294;2024-03-02T00:16:42;98740.69;;;10.75;100.00
18819;BME280;9537;45.594;9.294;2024-03-02T00:17:44;98745.97;;;10.75;100.00
18819;BME280;9537;45.594;9.294;2024-03-02T00:18:46;98740.09;;;10.73;100.00
18819;BME280;9537;45.594;9.294;2024-03-02T00:19:47;98742.53;;;10.75;100.00
18819;BME280;9537;45.594;9.294;2024-03-02T00:20:52;98741.72;;;10.74;100.00
18819;BME280;9537;45.594;9.294;2024-03-02T00:21:54;98742.53;;;10.75;100.00
18819;BME280;9537;45.594;9.294;2024-03-02T00:23:02;98743.34;;;10.75;100.00
18819;BME280;9537;45.594;9.294;2024-03-02T00:24:08;98746.81;;;10.76;100.00
18819;BME280;9537;45.594;9.294;2024-03-02T00:25:19;98742.34;;;10.76;100.00
18819;BME280;9537;45.594;9.294;2024-03-02T00:26:19;98739.72;;;10.76;100.00
18819;BME280;9537;45.594;9.294;2024-03-02T00:27:21;98741.53;;;10.76;100.00
18819;BME280;9537;45.594;9.294;2024-03-02T00:28:26;98745.16;;;10.75;100.00
18819;BME280;9537;45.594;9.294;2024-03-02T00:29:29;98741.53;;;10.76;100.00
18819;BME280;9537;45.594;9.294;2024-03-02T00:30:46;98753.09;;;10.75;100.00
18819;BME280;9537;45.594;9.294;2024-03-02T00:31:51;98747.81;;;10.75;100.00
18819;BME280;9537;45.594;9.294;2024-03-02T00:32:53;98748.63;;;10.75;100.00
18819;BME280;9537;45.594;9.294;2024-03-02T00:33:54;98753.09;;;10.75;100.00
18819;BME280;9537;45.594;9.294;2024-03-02T00:34:56;98744.38;;;10.74;100.00
18819;BME280;9537;45.594;9.294;2024-03-02T00:35:59;98745.97;;;10.75;100.00
18819;BME280;9537;45.594;9.294;2024-03-02T00:37:01;98749.47;;;10.76;100.00
18819;BME280;9537;45.594;9.294;2024-03-02T00:38:04;98754.13;;;10.74;100.00
18819;BME280;9537;45.594;9.294;2024-03-02T00:39:05;98755.09;;;10.73;100.00
18819;BME280;9537;45.594;9.294;2024-03-02T00:40:09;98752.88;;;10.70;100.00
18819;BME280;9537;45.594;9.294;2024-03-02T00:41:16;98751.06;;;10.70;100.00
18819;BME280;9537;45.594;9.294;2024-03-02T00:42:19;98759.16;;;10.69;100.00
18819;BME280;9537;45.594;9.294;2024-03-02T00:43:42;98752.25;;;10.68;100.00
18819;BME280;9537;45.594;9.294;2024-03-02T00:44:43;98753.88;;;10.69;100.00
18819;BME280;9537;45.594;9.294;2024-03-02T00:45:45;98751.06;;;10.70;100.00
18819;BME280;9537;45.594;9.294;2024-03-02T00:46:45;98754.69;;;10.69;100.00
18819;BME280;9537;45.594;9.294;2024-03-02T00:47:47;98752.06;;;10.69;100.00
18819;BME280;9537;45.594;9.294;2024-03-02T00:48:53;98748.59;;;10.69;100.00
18819;BME280;9537;45.594;9.294;2024-03-02T00:49:54;98744.34;;;10.68;100.00
18819;BME280;9537;45.594;9.294;2024-03-02T00:50:56;98747.97;;;10.67;100.00
18819;BME280;9537;45.594;9.294;2024-03-02T00:51:58;98748.19;;;10.65;100.00
18819;BME280;9537;45.594;9.294;2024-03-02T00:53:01;98749.00;;;10.66;100.00
18819;BME280;9537;45.594;9.294;2024-03-02T00:54:04;98748.19;;;10.65;100.00
18819;BME280;9537;45.594;9.294;2024-03-02T00:55:07;98756.72;;;10.67;100.00
18819;BME280;9537;45.594;9.294;2024-03-02T00:56:09;98746.16;;;10.67;100.00
18819;BME280;9537;45.594;9.294;2024-03-02T00:57:12;98753.06;;;10.68;100.00
18819;BME280;9537;45.594;9.294;2024-03-02T00:58:13;98751.44;;;10.67;100.00
18819;BME280;9537;45.594;9.294;2024-03-02T00:59:15;98744.34;;;10.68;100.00
18819;BME280;9537;45.594;9.294;2024-03-02T01:00:16;98746.78;;;10.69;100.00
18819;BME280;9537;45.594;9.294;2024-03-02T01:01:18;98746.59;;;10.71;100.00
18819;BME280;9537;45.594;9.294;2024-03-02T01:02:20;98742.94;;;10.72;100.00
18819;BME280;9537;45.594;9.294;2024-03-02T01:03:21;98746.59;;;10.71;100.00
18819;BME280;9537;45.594;9.294;2024-03-02T01:04:22;98751.06;;;10.70;100.00
18819;BME280;9537;45.594;9.294;2024-03-02T01:05:23;98751.25;;;10.69;100.00
18819;BME280;9537;45.594;9.294;2024-03-02T01:06:25;98751.06;;;10.70;100.00
18819;BME280;9537;45.594;9.294;2024-03-02T01:07:27;98753.69;;;10.70;100.00
18819;BME280;9537;45.594;9.294;2024-03-02T01:08:29;98747.78;;;10.68;100.00
18819;BME280;9537;45.594;9.294;2024-03-02T01:09:29;98745.16;;;10.68;100.00
18819;BME280;9537;45.594;9.294;2024-03-02T01:10:31;98749.81;;;10.66;100.00
18819;BME280;9537;45.594;9.294;2024-03-02T01:11:32;98744.91;;;10.63;100.00
18819;BME280;9537;45.594;9.294;2024-03-02T01:12:34;98750.19;;;10.63;100.00
18819;BME280;9537;45.594;9.294;2024-03-02T01:13:35;98742.09;;;10.65;100.00
18819;BME280;9537;45.594;9.294;2024-03-02T01:14:37;98746.53;;;10.64;100.00
18819;BME280;9537;45.594;9.294;2024-03-02T01:15:37;98751.81;;;10.64;100.00
18819;BME280;9537;45.594;9.294;2024-03-02T01:16:39;98744.75;;;10.65;100.00
18819;BME280;9537;45.594;9.294;2024-03-02T01:17:40;98745.34;;;10.67;100.00
18819;BME280;9537;45.594;9.294;2024-03-02T01:18:41;98741.69;;;10.68;100.00
18819;BME280;9537;45.594;9.294;2024-03-02T01:19:43;98741.50;;;10.69;100.00
18819;BME280;9537;45.594;9.294;2024-03-02T01:20:44;98744.34;;;10.68;100.00
18819;BME280;9537;45.594;9.294;2024-03-02T01:21:45;98741.69;;;10.68;100.00
18819;BME280;9537;45.594;9.294;2024-03-02T01:22:48;98739.88;;;10.68;100.00
18819;BME280;9537;45.594;9.294;2024-03-02T01:23:49;98741.69;;;10.68;100.00
18819;BME280;9537;45.594;9.294;2024-03-02T01:24:50;98745.16;;;10.68;100.00
18819;BME280;9537;45.594;9.294;2024-03-02T01:25:52;98750.44;;;10.68;100.00
18819;BME280;9537;45.594;9.294;2024-03-02T01:26:52;98741.50;;;10.69;100.00
18819;BME280;9537;45.594;9.294;2024-03-02T01:27:54;98744.13;;;10.69;100.00
18819;BME280;9537;45.594;9.294;2024-03-02T01:28:55;98747.78;;;10.68;100.00
18819;BME280;9537;45.594;9.294;2024-03-02T01:29:57;98738.84;;;10.69;100.00
18819;BME280;9537;45.594;9.294;2024-03-02T01:30:57;98737.84;;;10.70;100.00
18819;BME280;9537;45.594;9.294;2024-03-02T01:31:59;98743.94;;;10.71;100.00
18819;BME280;9537;45.594;9.294;2024-03-02T01:33:00;98739.66;;;10.70;100.00
18819;BME280;9537;45.594;9.294;2024-03-02T01:34:02;98747.41;;;10.71;100.00
18819;BME280;9537;45.594;9.294;2024-03-02T01:35:04;98744.75;;;10.71;100.00
18819;BME280;9537;45.594;9.294;2024-03-02T01:36:06;98746.59;;;10.71;100.00
18819;BME280;9537;45.594;9.294;2024-03-02T01:37:08;98749.41;;;10.69;100.00
18819;BME280;9537;45.594;9.294;2024-03-02T01:38:11;98749.41;;;10.69;100.00
18819;BME280;9537;45.594;9.294;2024-03-02T01:39:12;98739.88;;;10.68;100.00
18819;BME280;9537;45.594;9.294;2024-03-02T01:40:14;98743.72;;;10.66;100.00
18819;BME280;9537;45.594;9.294;2024-03-02T01:41:15;98734.34;;;10.63;100.00
18819;BME280;9537;45.594;9.294;2024-03-02T01:42:17;98737.00;;;10.63;100.00
18819;BME280;9537;45.594;9.294;2024-03-02T01:43:18;98741.25;;;10.64;100.00
18819;BME280;9537;45.594;9.294;2024-03-02T01:44:18;98736.81;;;10.65;100.00
18819;BME280;9537;45.594;9.294;2024-03-02T01:45:20;98736.81;;;10.65;100.00
18819;BME280;9537;45.594;9.294;2024-03-02T01:46:21;98740.44;;;10.64;100.00
18819;BME280;9537;45.594;9.294;2024-03-02T01:47:23;98736.59;;;10.66;100.00
18819;BME280;9537;45.594;9.294;2024-03-02T01:48:24;98740.06;;;10.67;100.00
18819;BME280;9537;45.594;9.294;2024-03-02T01:49:26;98740.84;;;10.67;100.00
18819;BME280;9537;45.594;9.294;2024-03-02T01:50:27;98736.59;;;10.66;100.00
18819;BME280;9537;45.594;9.294;2024-03-02T01:51:30;98744.53;;;10.66;100.00
18819;BME280;9537;45.594;9.294;2024-03-02T01:52:30;98735.97;;;10.64;100.00
18819;BME280;9537;45.594;9.294;2024-03-02T01:53:33;98740.44;;;10.64;100.00
18819;BME280;9537;45.594;9.294;2024-03-02T01:54:34;98737.00;;;10.63;100.00
18819;BME280;9537;45.594;9.294;2024-03-02T01:55:36;98732.13;;;10.67;100.00
18819;BME280;9537;45.594;9.294;2024-03-02T01:56:37;98736.59;;;10.66;100.00
18819;BME280;9537;45.594;9.294;2024-03-02T01:57:38;98736.81;;;10.65;100.00
18819;BME280;9537;45.594;9.294;2024-03-02T01:58:39;98734.97;;;10.65;100.00
18819;BME280;9537;45.594;9.294;2024-03-02T01:59:40;98740.66;;;10.62;100.00
18819;BME280;9537;45.594;9.294;2024-03-02T02:00:41;98737.00;;;10.63;100.00
18819;BME280;9537;45.594;9.294;2024-03-02T02:01:43;98731.53;;;10.65;100.00
18819;BME280;9537;45.594;9.294;2024-03-02T02:02:44;98732.34;;;10.65;100.00
18819;BME280;9537;45.594;9.294;2024-03-02T02:03:44;98727.06;;;10.65;100.00
18819;BME280;9537;45.594;9.294;2024-03-02T02:04:46;98737.63;;;10.65;100.00
18819;BME280;9537;45.594;9.294;2024-03-02T02:05:47;98735.78;;;10.66;100.00
18819;BME280;9537;45.594;9.294;2024-03-02T02:06:49;98727.06;;;10.65;100.00
18819;BME280;9537;45.594;9.294;2024-03-02T02:07:49;98729.69;;;10.65;100.00
18819;BME280;9537;45.594;9.294;2024-03-02T02:08:53;98730.69;;;10.64;100.00
18819;BME280;9537;45.594;9.294;2024-03-02T02:09:54;98729.88;;;10.64;100.00
18819;BME280;9537;45.594;9.294;2024-03-02T02:10:54;98732.53;;;10.64;100.00
18819;BME280;9537;45.594;9.294;2024-03-02T02:11:56;98733.34;;;10.64;100.00
18819;BME280;9537;45.594;9.294;2024-03-02T02:12:57;98727.06;;;10.65;100.00
18819;BME280;9537;45.594;9.294;2024-03-02T02:13:59;98729.69;;;10.65;100.00
18819;BME280;9537;45.594;9.294;2024-03-02T02:14:59;98733.16;;;10.66;100.00
18819;BME280;9537;45.594;9.294;2024-03-02T02:16:05;98727.88;;;10.66;100.00
18819;BME280;9537;45.594;9.294;2024-03-02T02:17:06;98727.88;;;10.66;100.00
18819;BME280;9537;45.594;9.294;2024-03-02T02:18:08;98721.56;;;10.67;100.00
18819;BME280;9537;45.594;9.294;2024-03-02T02:19:08;98727.06;;;10.65;100.00
18819;BME280;9537;45.594;9.294;2024-03-02T02:20:11;98730.69;;;10.64;100.00
18819;BME280;9537;45.594;9.294;2024-03-02T02:21:12;98725.41;;;10.64;100.00
18819;BME280;9537;45.594;9.294;2024-03-02T02:22:14;98728.88;;;10.65;100.00
18819;BME280;9537;45.594;9.294;2024-03-02T02:23:16;98727.06;;;10.65;100.00
18819;BME280;9537;45.594;9.294;2024-03-02T02:24:16;98725.22;;;10.66;100.00
18819;BME280;9537;45.594;9.294;2024-03-02T02:25:18;98724.22;;;10.67;100.00
18819;BME280;9537;45.594;9.294;2024-03-02T02:26:19;98731.31;;;10.66;100.00
18819;BME280;9537;45.594;9.294;2024-03-02T02:27:21;98725.22;;;10.66;100.00
18819;BME280;9537;45.594;9.294;2024-03-02T02:28:21;98726.03;;;10.66;100.00
18819;BME280;9537;45.594;9.294;2024-03-02T02:29:23;98727.06;;;10.65;100.00
18819;BME280;9537;45.594;9.294;2024-03-02T02:30:25;98726.03;;;10.66;100.00
18819;BME280;9537;45.594;9.294;2024-03-02T02:31:36;98728.88;;;10.65;100.00
18819;BME280;9537;45.594;9.294;2024-03-02T02:32:37;98727.06;;;10.65;100.00
18819;BME280;9537;45.594;9.294;2024-03-02T02:33:39;98723.59;;;10.65;100.00
18819;BME280;9537;45.594;9.294;2024-03-02T02:34:40;98730.50;;;10.66;100.00
18819;BME280;9537;45.594;9.294;2024-03-02T02:35:42;98720.97;;;10.65;100.00
18819;BME280;9537;45.594;9.294;2024-03-02T02:36:43;98726.25;;;10.65;100.00
18819;BME280;9537;45.594;9.294;2024-03-02T02:37:47;98728.88;;;10.65;100.00
18819;BME280;9537;45.594;9.294;2024-03-02T02:38:49;98719.94;;;10.66;100.00
18819;BME280;9537;45.594;9.294;2024-03-02T02:39:51;98725.00;;;10.67;100.00
18819;BME280;9537;45.594;9.294;2024-03-02T02:40:51;98721.56;;;10.67;100.00
18819;BME280;9537;45.594;9.294;2024-03-02T02:41:52;98714.84;;;10.64;100.00
18819;BME280;9537;45.594;9.294;2024-03-02T02:42:54;98721.78;;;10.65;100.00
18819;BME280;9537;45.594;9.294;2024-03-02T02:43:54;98718.13;;;10.66;100.00
18819;BME280;9537;45.594;9.294;2024-03-02T02:44:56;98718.13;;;10.66;100.00
18819;BME280;9537;45.594;9.294;2024-03-02T02:45:57;98720.56;;;10.68;100.00
18819;BME280;9537;45.594;9.294;2024-03-02T02:46:59;98711.00;;;10.67;100.00
18819;BME280;9537;45.594;9.294;2024-03-02T02:48:00;98714.44;;;10.67;100.00
18819;BME280;9537;45.594;9.294;2024-03-02T02:49:03;98717.09;;;10.67;100.00
18819;BME280;9537;45.594;9.294;2024-03-02T02:50:04;98718.94;;;10.67;100.00
18819;BME280;9537;45.594;9.294;2024-03-02T02:51:07;98719.72;;;10.67;100.00
18819;BME280;9537;45.594;9.294;2024-03-02T02:52:09;98716.28;;;10.67;100.00
18819;BME280;9537;45.594;9.294;2024-03-02T02:53:11;98715.28;;;10.68;100.00
18819;BME280;9537;45.594;9.294;2024-03-02T02:54:13;98712.66;;;10.68;100.00
18819;BME280;9537;45.594;9.294;2024-03-02T02:55:13;98710.81;;;10.68;100.00
18819;BME280;9537;45.594;9.294;2024-03-02T02:56:16;98706.34;;;10.69;100.00
18819;BME280;9537;45.594;9.294;2024-03-02T02:57:17;98712.66;;;10.68;100.00
18819;BME280;9537;45.594;9.294;2024-03-02T02:58:19;98719.72;;;10.67;100.00
18819;BME280;9537;45.594;9.294;2024-03-02T02:59:19;98720.75;;;10.66;100.00
18819;BME280;9537;45.594;9.294;2024-03-02T03:00:20;98718.94;;;10.67;100.00
18819;BME280;9537;45.594;9.294;2024-03-02T03:01:23;98722.38;;;10.67;100.00
18819;BME280;9537;45.594;9.294;2024-03-02T03:02:24;98725.84;;;10.68;100.00
18819;BME280;9537;45.594;9.294;2024-03-02T03:03:24;98713.84;;;10.65;100.00
18819;BME280;9537;45.594;9.294;2024-03-02T03:04:26;98717.09;;;10.67;100.00
18819;BME280;9537;45.594;9.294;2024-03-02T03:05:27;98711.81;;;10.67;100.00
18819;BME280;9537;45.594;9.294;2024-03-02T03:06:29;98724.22;;;10.67;100.00
18819;BME280;9537;45.594;9.294;2024-03-02T03:07:29;98718.94;;;10.67;100.00
18819;BME280;9537;45.594;9.294;2024-03-02T03:08:33;98721.38;;;10.68;100.00
18819;BME280;9537;45.594;9.294;2024-03-02T03:09:37;98712.66;;;10.68;100.00
18819;BME280;9537;45.594;9.294;2024-03-02T03:10:39;98713.47;;;10.68;100.00
18819;BME280;9537;45.594;9.294;2024-03-02T03:11:40;98724.84;;;10.69;100.00
18819;BME280;9537;45.594;9.294;2024-03-02T03:12:42;98718.13;;;10.66;100.00
18819;BME280;9537;45.594;9.294;2024-03-02T03:13:43;98719.72;;;10.67;100.00
18819;BME280;9537;45.594;9.294;2024-03-02T03:14:45;98714.28;;;10.69;100.00
18819;BME280;9537;45.594;9.294;2024-03-02T03:15:46;98719.38;;;10.70;100.00
18819;BME280;9537;45.594;9.294;2024-03-02T03:16:48;98717.09;;;10.67;100.00
18819;BME280;9537;45.594;9.294;2024-03-02T03:17:49;98721.78;;;10.65;100.00
18819;BME280;9537;45.594;9.294;2024-03-02T03:18:51;98723.59;;;10.65;100.00
18819;BME280;9537;45.594;9.294;2024-03-02T03:19:53;98721.97;;;10.64;100.00
18819;BME280;9537;45.594;9.294;2024-03-02T03:20:55;98715.88;;;10.63;100.00
18819;BME280;9537;45.594;9.294;2024-03-02T03:21:57;98713.22;;;10.63;100.00
18819;BME280;9537;45.594;9.294;2024-03-02T03:22:58;98721.16;;;10.63;100.00
18819;BME280;9537;45.594;9.294;2024-03-02T03:24:00;98717.88;;;10.61;100.00
18819;BME280;9537;45.594;9.294;2024-03-02T03:25:02;98724.81;;;10.62;100.00
18819;BME280;9537;45.594;9.294;2024-03-02T03:26:03;98718.50;;;10.63;100.00
18819;BME280;9537;45.594;9.294;2024-03-02T03:27:06;98723.78;;;10.63;100.00
18819;BME280;9537;45.594;9.294;2024-03-02T03:28:07;98720.13;;;10.64;100.00
18819;BME280;9537;45.594;9.294;2024-03-02T03:29:10;98731.53;;;10.65;100.00
18819;BME280;9537;45.594;9.294;2024-03-02T03:30:11;98731.53;;;10.65;100.00
18819;BME280;9537;45.594;9.294;2024-03-02T03:31:13;98725.41;;;10.64;100.00
18819;BME280;9537;45.594;9.294;2024-03-02T03:32:14;98728.88;;;10.65;100.00
18819;BME280;9537;45.594;9.294;2024-03-02T03:33:17;98726.25;;;10.65;100.00
18819;BME280;9537;45.594;9.294;2024-03-02T03:34:17;98726.03;;;10.66;100.00
18819;BME280;9537;45.594;9.294;2024-03-02T03:35:19;98726.25;;;10.65;100.00
18819;BME280;9537;45.594;9.294;2024-03-02T03:36:20;98730.69;;;10.64;100.00
18819;BME280;9537;45.594;9.294;2024-03-02T03:37:22;98725.63;;;10.63;100.00
18819;BME280;9537;45.594;9.294;2024-03-02T03:38:23;98731.72;;;10.63;100.00
18819;BME280;9537;45.594;9.294;2024-03-02T03:39:26;98729.06;;;10.63;100.00
18819;BME280;9537;45.594;9.294;2024-03-02T03:40:27;98721.97;;;10.64;100.00
18819;BME280;9537;45.594;9.294;2024-03-02T03:41:29;98726.25;;;10.65;100.00
18819;BME280;9537;45.594;9.294;2024-03-02T03:42:29;98721.97;;;10.64;100.00
18819;BME280;9537;45.594;9.294;2024-03-02T03:43:30;98729.88;;;10.64;100.00
18819;BME280;9537;45.594;9.294;2024-03-02T03:44:32;98735.56;;;10.60;100.00
18819;BME280;9537;45.594;9.294;2024-03-02T03:45:33;98728.84;;;10.58;100.00
18819;BME280;9537;45.594;9.294;2024-03-02T03:46:35;98733.13;;;10.59;100.00
18819;BME280;9537;45.594;9.294;2024-03-02T03:47:36;98726.81;;;10.60;100.00
18819;BME280;9537;45.594;9.294;2024-03-02T03:48:36;98733.72;;;10.61;100.00
18819;BME280;9537;45.594;9.294;2024-03-02T03:49:38;98736.75;;;10.58;100.00
18819;BME280;9537;45.594;9.294;2024-03-02T03:50:39;98732.28;;;10.58;100.00
18819;BME280;9537;45.594;9.294;2024-03-02T03:51:41;98735.56;;;10.60;100.00
18819;BME280;9537;45.594;9.294;2024-03-02T03:52:41;98732.91;;;10.60;100.00
18819;BME280;9537;45.594;9.294;2024-03-02T03:53:42;98733.94;;;10.59;100.00
18819;BME280;9537;45.594;9.294;2024-03-02T03:54:45;98736.38;;;10.61;100.00
18819;BME280;9537;45.594;9.294;2024-03-02T03:55:46;98738.59;;;10.57;100.00
18819;BME280;9537;45.594;9.294;2024-03-02T03:56:49;98735.31;;;10.55;100.00
18819;BME280;9537;45.594;9.294;2024-03-02T03:57:50;98737.16;;;10.55;100.00
18819;BME280;9537;45.594;9.294;2024-03-02T03:58:52;98736.16;;;10.56;100.00
18819;BME280;9537;45.594;9.294;2024-03-02T03:59:53;98729.03;;;10.56;100.00
18819;BME280;9537;45.594;9.294;2024-03-02T04:00:55;98735.13;;;10.57;100.00
18819;BME280;9537;45.594;9.294;2024-03-02T04:01:56;98735.13;;;10.57;100.00
18819;BME280;9537;45.594;9.294;2024-03-02T04:02:57;98738.78;;;10.56;100.00
18819;BME280;9537;45.594;9.294;2024-03-02T04:03:58;98736.16;;;10.56;100.00
18819;BME280;9537;45.594;9.294;2024-03-02T04:05:02;98742.44;;;10.55;100.00
18819;BME280;9537;45.594;9.294;2024-03-02T04:06:08;98736.34;;;10.54;100.00
18819;BME280;9537;45.594;9.294;2024-03-02T04:07:10;98740.00;;;10.53;100.00
18819;BME280;9537;45.594;9.294;2024-03-02T04:08:10;98742.63;;;10.53;100.00
18819;BME280;9537;45.594;9.294;2024-03-02T04:09:12;98744.44;;;10.53;100.00
18819;BME280;9537;45.594;9.294;2024-03-02T04:10:14;98748.72;;;10.54;100.00
18819;BME280;9537;45.594;9.294;2024-03-02T04:11:17;98742.81;;;10.52;100.00
18819;BME280;9537;45.594;9.294;2024-03-02T04:12:18;98744.84;;;10.50;100.00
18819;BME280;9537;45.594;9.294;2024-03-02T04:13:20;98740.56;;;10.49;100.00
18819;BME280;9537;45.594;9.294;2024-03-02T04:14:21;98744.84;;;10.50;100.00
18819;BME280;9537;45.594;9.294;2024-03-02T04:15:23;98738.56;;;10.51;100.00
18819;BME280;9537;45.594;9.294;2024-03-02T04:16:24;98745.47;;;10.52;100.00
18819;BME280;9537;45.594;9.294;2024-03-02T04:17:26;98748.09;;;10.52;100.00
18819;BME280;9537;45.594;9.294;2024-03-02T04:18:26;98754.00;;;10.54;100.00
18819;BME280;9537;45.594;9.294;2024-03-02T04:19:28;98743.63;;;10.52;100.00
18819;BME280;9537;45.594;9.294;2024-03-02T04:20:29;98750.56;;;10.53;100.00
18819;BME280;9537;45.594;9.294;2024-03-02T04:21:31;98749.53;;;10.54;100.00
18819;BME280;9537;45.594;9.294;2024-03-02T04:22:33;98748.72;;;10.54;100.00
18819;BME280;9537;45.594;9.294;2024-03-02T04:23:36;98746.09;;;10.54;100.00
18819;BME280;9537;45.594;9.294;2024-03-02T04:24:37;98755.63;;;10.55;100.00
18819;BME280;9537;45.594;9.294;2024-03-02T04:25:39;98754.81;;;10.54;100.00
18819;BME280;9537;45.594;9.294;2024-03-02T04:26:40;98755.00;;;10.53;100.00
18819;BME280;9537;45.594;9.294;2024-03-02T04:27:41;98756.44;;;10.55;100.00
18819;BME280;9537;45.594;9.294;2024-03-02T04:28:43;98759.94;;;10.56;100.00
18819;BME280;9537;45.594;9.294;2024-03-02T04:29:44;98755.44;;;10.56;100.00
18819;BME280;9537;45.594;9.294;2024-03-02T04:30:46;98754.44;;;10.57;100.00
18819;BME280;9537;45.594;9.294;2024-03-02T04:31:47;98752.59;;;10.58;100.00
18819;BME280;9537;45.594;9.294;2024-03-02T04:32:48;98760.53;;;10.58;100.00
18819;BME280;9537;45.594;9.294;2024-03-02T04:33:49;98753.63;;;10.57;100.00
18819;BME280;9537;45.594;9.294;2024-03-02T04:34:51;98756.25;;;10.57;100.00
18819;BME280;9537;45.594;9.294;2024-03-02T04:35:51;98758.91;;;10.57;100.00
18819;BME280;9537;45.594;9.294;2024-03-02T04:36:53;98756.25;;;10.57;100.00
18819;BME280;9537;45.594;9.294;2024-03-02T04:37:55;98765.81;;;10.58;100.00
18819;BME280;9537;45.594;9.294;2024-03-02T04:38:56;98758.69;;;10.58;100.00
18819;BME280;9537;45.594;9.294;2024-03-02T04:39:58;98761.53;;;10.57;100.00
18819;BME280;9537;45.594;9.294;2024-03-02T04:41:00;98766.00;;;10.56;100.00
18819;BME280;9537;45.594;9.294;2024-03-02T04:42:02;98765.38;;;10.54;100.00
18819;BME280;9537;45.594;9.294;2024-03-02T04:43:03;98759.47;;;10.52;100.00
18819;BME280;9537;45.594;9.294;2024-03-02T04:44:05;98758.66;;;10.52;100.00
18819;BME280;9537;45.594;9.294;2024-03-02T04:45:08;98763.31;;;10.50;100.00
18819;BME280;9537;45.594;9.294;2024-03-02T04:46:09;98767.78;;;10.49;100.00
18819;BME280;9537;45.594;9.294;2024-03-02T04:47:11;98765.34;;;10.48;100.00
18819;BME280;9537;45.594;9.294;2024-03-02T04:48:12;98770.63;;;10.48;100.00
18819;BME280;9537;45.594;9.294;2024-03-02T04:49:14;98766.34;;;10.47;100.00
18819;BME280;9537;45.594;9.294;2024-03-02T04:50:15;98770.81;;;10.46;100.00
18819;BME280;9537;45.594;9.294;2024-03-02T04:51:17;98775.09;;;10.47;100.00
18819;BME280;9537;45.594;9.294;2024-03-02T04:52:18;98774.09;;;10.48;100.00
18819;BME280;9537;45.594;9.294;2024-03-02T04:53:19;98772.47;;;10.47;100.00
18819;BME280;9537;45.594;9.294;2024-03-02T04:54:20;98776.09;;;10.46;100.00
18819;BME280;9537;45.594;9.294;2024-03-02T04:55:21;98775.69;;;10.49;100.00
18819;BME280;9537;45.594;9.294;2024-03-02T04:56:38;98776.34;;;10.51;100.00
18819;BME280;9537;45.594;9.294;2024-03-02T04:57:49;98773.88;;;10.50;100.00
18819;BME280;9537;45.594;9.294;2024-03-02T04:58:51;98774.09;;;10.48;100.00
18819;BME280;9537;45.594;9.294;2024-03-02T04:59:53;98777.91;;;10.46;100.00
18819;BME280;9537;45.594;9.294;2024-03-02T05:00:54;98785.22;;;10.44;100.00
18819;BME280;9537;45.594;9.294;2024-03-02T05:01:57;98783.59;;;10.43;100.00
18819;BME280;9537;45.594;9.294;2024-03-02T05:02:58;98793.94;;;10.44;100.00
18819;BME280;9537;45.594;9.294;2024-03-02T05:04:00;98786.03;;;10.44;100.00
18819;BME280;9537;45.594;9.294;2024-03-02T05:05:01;98788.66;;;10.44;100.00
18819;BME280;9537;45.594;9.294;2024-03-02T05:06:03;98793.94;;;10.44;100.00
18819;BME280;9537;45.594;9.294;2024-03-02T05:07:04;98792.13;;;10.45;100.00
18819;BME280;9537;45.594;9.294;2024-03-02T05:08:06;98785.84;;;10.46;100.00
18819;BME280;9537;45.594;9.294;2024-03-02T05:09:07;98788.47;;;10.46;100.00
18819;BME280;9537;45.594;9.294;2024-03-02T05:10:09;98794.56;;;10.46;100.00
18819;BME280;9537;45.594;9.294;2024-03-02T05:11:10;98795.38;;;10.47;100.00
18819;BME280;9537;45.594;9.294;2024-03-02T05:12:40;98791.13;;;10.46;100.00
18819;BME280;9537;45.594;9.294;2024-03-02T05:13:56;98801.69;;;10.46;100.00
18819;BME280;9537;45.594;9.294;2024-03-02T05:14:56;98793.75;;;10.46;100.00
18819;BME280;9537;45.594;9.294;2024-03-02T05:15:58;98798.22;;;10.45;100.00
18819;BME280;9537;45.594;9.294;2024-03-02T05:16:59;98796.41;;;10.46;100.00
18819;BME280;9537;45.594;9.294;2024-03-02T05:18:00;98798.88;;;10.47;100.00
18819;BME280;9537;45.594;9.294;2024-03-02T05:19:03;98793.75;;;10.46;100.00
18819;BME280;9537;45.594;9.294;2024-03-02T05:20:05;98801.50;;;10.47;100.00
18819;BME280;9537;45.594;9.294;2024-03-02T05:21:08;98796.22;;;10.47;100.00
18819;BME280;9537;45.594;9.294;2024-03-02T05:22:09;98791.94;;;10.46;100.00
18819;BME280;9537;45.594;9.294;2024-03-02T05:23:10;98799.69;;;10.48;100.00
18819;BME280;9537;45.594;9.294;2024-03-02T05:24:11;98802.09;;;10.49;100.00
18819;BME280;9537;45.594;9.294;2024-03-02T05:25:13;98790.72;;;10.49;100.00
18819;BME280;9537;45.594;9.294;2024-03-02T05:26:14;98797.63;;;10.50;100.00
18819;BME280;9537;45.594;9.294;2024-03-02T05:27:16;98804.16;;;10.47;100.00
18819;BME280;9537;45.594;9.294;2024-03-02T05:28:18;98803.50;;;10.45;100.00
18819;BME280;9537;45.594;9.294;2024-03-02T05:29:20;98799.03;;;10.46;100.00